Time;durP1;ratioP1;P1;durP2;ratioP2;P2;SDS_P1;SDS_P2;PMS_P1;PMS_P2;Temp;Humidity;BMP_temperature;BMP_pressure;BME280_temperature;BME280_humidity;BME280_pressure;Samples;Min_cycle;Max_cycle;Signal;HPM_P1;HPM_P2
2020/12/26 00:01:34;;;;;;;;;;;;;;;19.77;63.04;100418.25;5043729;28;1641;-53
2020/12/26 00:03:59;;;;;;;;;;;;;;;19.75;63.06;100414.88;5049101;28;1971;-54
2020/12/26 00:06:25;;;;;;;;;;;;;;;19.74;62.94;100423.94;5050671;28;1538;-59
2020/12/26 00:08:51;;;;;;;;;;;;;;;19.74;63.17;100429.31;5049318;28;1470;-58
2020/12/26 00:11:17;;;;;;;;;;;;;;;19.74;62.70;100420.41;5051726;28;1578;-52
2020/12/26 00:13:43;;;;;;;;;;;;;;;19.74;62.64;100428.47;5057598;28;1630;-55
2020/12/26 00:16:10;;;;;;;;;;;;;;;19.70;62.92;100446.66;5057736;28;1664;-52
2020/12/26 00:18:35;;;;;;;;;;;;;;;19.72;62.75;100460.81;5057468;28;1516;-53
2020/12/26 00:21:04;;;;;;;;;;;;;;;19.71;62.65;100472.50;5057118;28;1433;-53
2020/12/26 00:23:29;;;;;;;;;;;;;;;19.72;62.55;100468.84;5048958;28;1894;-53
2020/12/26 00:25:54;;;;;;;;;;;;;;;19.74;62.54;100477.59;5046344;28;1522;-58
2020/12/26 00:28:20;;;;;;;;;;;;;;;19.73;62.31;100470.53;5051618;28;1443;-53
2020/12/26 00:30:45;;;;;;;;;;;;;;;19.74;62.31;100484.81;5057169;28;1811;-58
2020/12/26 00:33:11;;;;;;;;;;;;;;;19.76;62.26;100497.06;5057010;28;1454;-58
2020/12/26 00:35:36;;;;;;;;;;;;;;;19.71;62.25;100490.41;5057329;28;1593;-53
2020/12/26 00:38:01;;;;;;;;;;;;;;;19.71;62.37;100488.59;5056900;28;1684;-58
2020/12/26 00:40:27;;;;;;;;;;;;;;;19.71;61.83;100477.00;5056595;28;1728;-58
2020/12/26 00:42:52;;;;;;;;;;;;;;;19.73;61.95;100510.75;5056503;28;1906;-53
2020/12/26 00:45:18;;;;;;;;;;;;;;;19.74;62.11;100504.41;5057066;28;1581;-53
2020/12/26 00:47:43;;;;;;;;;;;;;;;19.70;62.13;100500.31;5055112;28;1614;-58
2020/12/26 00:50:09;;;;;;;;;;;;;;;19.70;61.82;100497.63;5056635;28;1676;-58
2020/12/26 00:52:34;;;;;;;;;;;;;;;19.69;61.96;100495.94;5057156;28;797;-54
2020/12/26 00:55:00;;;;;;;;;;;;;;;19.68;61.96;100500.44;5057325;28;860;-53
2020/12/26 00:57:25;;;;;;;;;;;;;;;19.70;61.79;100500.31;5057099;28;1641;-53
2020/12/26 00:59:50;;;;;;;;;;;;;;;19.67;61.84;100495.22;5056359;28;1601;-54
2020/12/26 01:02:16;;;;;;;;;;;;;;;19.68;61.93;100499.63;5041267;23;1981;-49
2020/12/26 01:04:42;;;;;;;;;;;;;;;19.69;61.59;100506.66;5054480;28;1910;-49
2020/12/26 01:07:08;;;;;;;;;;;;;;;19.71;61.92;100510.06;5053324;28;804;-49
2020/12/26 01:09:34;;;;;;;;;;;;;;;19.76;61.45;100520.38;5035608;28;1918;-50
2020/12/26 01:12:00;;;;;;;;;;;;;;;19.75;61.24;100524.03;5046259;28;1656;-49
2020/12/26 01:14:25;;;;;;;;;;;;;;;19.73;61.33;100526.88;5055170;28;1861;-49
2020/12/26 01:16:51;;;;;;;;;;;;;;;19.75;61.16;100537.44;5050439;28;1560;-49
2020/12/26 01:19:17;;;;;;;;;;;;;;;19.72;61.03;100529.72;5042206;28;1868;-49
2020/12/26 01:21:43;;;;;;;;;;;;;;;19.69;61.05;100528.13;5048884;28;1394;-48
2020/12/26 01:24:08;;;;;;;;;;;;;;;19.71;61.03;100536.03;5040599;28;1890;-49
2020/12/26 01:26:35;;;;;;;;;;;;;;;19.70;61.16;100535.19;5035710;28;880;-49
2020/12/26 01:29:01;;;;;;;;;;;;;;;19.69;60.99;100522.75;5035531;28;1518;-49
2020/12/26 01:31:27;;;;;;;;;;;;;;;19.70;61.06;100535.19;5053291;28;1771;-49
2020/12/26 01:33:52;;;;;;;;;;;;;;;19.70;60.89;100537.03;5055320;28;1970;-49
2020/12/26 01:36:18;;;;;;;;;;;;;;;19.69;60.87;100530.78;5055069;28;840;-49
2020/12/26 01:38:44;;;;;;;;;;;;;;;19.71;61.11;100523.47;5053420;28;1759;-49
2020/12/26 01:41:10;;;;;;;;;;;;;;;19.71;60.68;100539.56;5057485;28;1580;-49
2020/12/26 01:43:35;;;;;;;;;;;;;;;19.72;60.48;100540.44;5074897;28;1965;-49
2020/12/26 01:46:02;;;;;;;;;;;;;;;19.72;60.85;100557.38;5072677;28;1671;-49
2020/12/26 01:48:28;;;;;;;;;;;;;;;19.76;60.60;100556.09;5052766;28;1532;-48
2020/12/26 01:50:54;;;;;;;;;;;;;;;19.72;60.76;100554.69;5061359;28;1680;-49
2020/12/26 01:53:19;;;;;;;;;;;;;;;19.70;60.47;100547.75;5034371;28;1119;-48
2020/12/26 01:55:47;;;;;;;;;;;;;;;19.70;60.49;100551.28;5047788;28;1386;-49
2020/12/26 01:58:14;;;;;;;;;;;;;;;19.69;60.45;100560.31;5054698;28;1556;-49
2020/12/26 02:00:41;;;;;;;;;;;;;;;19.69;60.61;100563.00;5067315;28;1826;-49
2020/12/26 02:03:15;;;;;;;;;;;;;;;19.66;60.42;100563.31;5054471;28;1985;-50
2020/12/26 02:05:41;;;;;;;;;;;;;;;19.71;60.57;100560.16;5063894;28;1426;-49
2020/12/26 02:08:15;;;;;;;;;;;;;;;19.69;60.33;100565.66;5063505;28;1628;-49
2020/12/26 02:10:42;;;;;;;;;;;;;;;19.68;60.21;100558.63;5050042;28;1717;-49
2020/12/26 02:13:08;;;;;;;;;;;;;;;19.69;60.31;100571.03;5037906;28;1679;-49
2020/12/26 02:15:33;;;;;;;;;;;;;;;19.68;60.97;100559.47;5054196;28;1383;-49
2020/12/26 02:17:59;;;;;;;;;;;;;;;19.73;61.36;100568.94;5054964;28;1655;-49
2020/12/26 02:20:25;;;;;;;;;;;;;;;19.75;60.54;100575.84;5054328;28;1584;-49
2020/12/26 02:22:50;;;;;;;;;;;;;;;19.73;60.33;100572.47;5071121;28;1965;-49
2020/12/26 02:25:15;;;;;;;;;;;;;;;19.76;60.50;100590.97;5057113;28;1675;-50
2020/12/26 02:27:44;;;;;;;;;;;;;;;19.73;60.55;100588.56;5054519;28;1652;-49
2020/12/26 02:30:10;;;;;;;;;;;;;;;19.74;60.38;100576.84;5073720;28;1435;-50
2020/12/26 02:32:35;;;;;;;;;;;;;;;19.75;61.73;100583.06;5055998;28;1543;-49
2020/12/26 02:35:02;;;;;;;;;;;;;;;19.77;61.09;100581.91;5073102;28;1698;-49
2020/12/26 02:37:28;;;;;;;;;;;;;;;19.74;60.55;100590.28;5073773;28;1972;-49
2020/12/26 02:39:54;;;;;;;;;;;;;;;19.75;60.66;100620.63;5041910;28;1641;-50
2020/12/26 02:42:19;;;;;;;;;;;;;;;19.71;60.91;100617.38;5054247;28;1550;-49
2020/12/26 02:44:44;;;;;;;;;;;;;;;19.74;60.67;100627.00;5073901;28;1951;-49
2020/12/26 02:47:11;;;;;;;;;;;;;;;19.71;60.89;100616.50;5073334;28;1822;-49
2020/12/26 02:49:37;;;;;;;;;;;;;;;19.73;60.61;100606.50;5071470;28;1798;-49
2020/12/26 02:52:02;;;;;;;;;;;;;;;19.77;60.27;100626.69;5073452;28;1659;-49
2020/12/26 02:54:29;;;;;;;;;;;;;;;19.75;60.24;100624.16;5048271;28;1241;-49
2020/12/26 02:56:56;;;;;;;;;;;;;;;19.76;60.42;100644.63;5053809;28;841;-49
2020/12/26 02:59:21;;;;;;;;;;;;;;;19.76;60.15;100630.38;5053544;28;1782;-49
2020/12/26 03:01:46;;;;;;;;;;;;;;;19.79;60.22;100648.84;5068712;28;1691;-49
2020/12/26 03:04:12;;;;;;;;;;;;;;;19.74;60.23;100640.41;5067145;28;1961;-49
2020/12/26 03:06:38;;;;;;;;;;;;;;;19.47;62.23;100642.78;5072735;28;1695;-49
2020/12/26 03:09:05;;;;;;;;;;;;;;;19.31;63.33;100652.38;5058048;28;1618;-49
2020/12/26 03:11:30;;;;;;;;;;;;;;;19.19;63.55;100660.56;5053672;28;851;-49
2020/12/26 03:13:56;;;;;;;;;;;;;;;19.13;63.92;100641.50;5070365;28;1707;-49
2020/12/26 03:16:22;;;;;;;;;;;;;;;19.07;64.19;100651.78;5073753;28;848;-49
2020/12/26 03:18:48;;;;;;;;;;;;;;;19.04;64.43;100636.00;5054752;28;1636;-49
2020/12/26 03:21:14;;;;;;;;;;;;;;;19.01;64.59;100633.59;5072815;28;1691;-49
2020/12/26 03:23:40;;;;;;;;;;;;;;;19.00;64.96;100633.72;5060855;28;1961;-49
2020/12/26 03:26:05;;;;;;;;;;;;;;;18.98;64.63;100639.25;5068704;28;1690;-50
2020/12/26 03:28:30;;;;;;;;;;;;;;;18.97;64.71;100624.13;5073555;28;1052;-49
2020/12/26 03:30:55;;;;;;;;;;;;;;;18.95;65.13;100641.34;5073074;28;1791;-49
2020/12/26 03:33:21;;;;;;;;;;;;;;;18.99;65.05;100645.44;5066587;28;1659;-49
2020/12/26 03:35:46;;;;;;;;;;;;;;;18.97;65.41;100632.16;5056786;28;822;-49
2020/12/26 03:38:12;;;;;;;;;;;;;;;18.97;65.28;100645.56;5053012;28;1346;-49
2020/12/26 03:40:38;;;;;;;;;;;;;;;18.97;65.16;100650.09;5037225;28;814;-49
2020/12/26 03:43:05;;;;;;;;;;;;;;;18.98;64.96;100647.28;5053905;28;1953;-49
2020/12/26 03:45:31;;;;;;;;;;;;;;;19.00;65.46;100645.31;5057574;28;1696;-49
2020/12/26 03:47:57;;;;;;;;;;;;;;;19.02;65.25;100662.09;5056663;28;1668;-49
2020/12/26 03:50:23;;;;;;;;;;;;;;;19.01;65.41;100651.50;5057133;28;939;-49
2020/12/26 03:52:50;;;;;;;;;;;;;;;19.01;65.80;100654.19;5057464;28;1948;-49
2020/12/26 03:55:15;;;;;;;;;;;;;;;18.97;65.59;100664.31;5056550;28;1703;-49
2020/12/26 03:57:40;;;;;;;;;;;;;;;18.97;65.94;100652.75;5057321;28;868;-49
2020/12/26 04:00:06;;;;;;;;;;;;;;;18.97;65.51;100672.38;5057163;28;886;-49
2020/12/26 04:02:31;;;;;;;;;;;;;;;18.94;65.42;100661.94;5061475;28;1910;-49
2020/12/26 04:04:57;;;;;;;;;;;;;;;18.97;65.78;100671.53;5063363;28;1571;-49
2020/12/26 04:07:23;;;;;;;;;;;;;;;18.94;65.64;100672.66;5056679;28;1684;-49
2020/12/26 04:09:50;;;;;;;;;;;;;;;18.95;66.05;100684.22;5056727;28;1704;-49
2020/12/26 04:12:15;;;;;;;;;;;;;;;18.93;65.91;100684.34;5056453;28;1301;-49
2020/12/26 04:14:41;;;;;;;;;;;;;;;18.93;65.84;100689.69;5056320;28;1659;-49
2020/12/26 04:17:06;;;;;;;;;;;;;;;18.92;66.46;100674.63;5056900;28;1674;-49
2020/12/26 04:19:33;;;;;;;;;;;;;;;18.91;66.15;100683.63;5056425;28;1919;-49
2020/12/26 04:21:59;;;;;;;;;;;;;;;18.92;66.04;100682.66;5056533;28;1474;-49
2020/12/26 04:24:26;;;;;;;;;;;;;;;18.88;66.33;100668.69;5056160;28;1953;-49
2020/12/26 04:26:51;;;;;;;;;;;;;;;18.86;66.37;100669.78;5064420;28;1723;-49
2020/12/26 04:29:21;;;;;;;;;;;;;;;18.85;66.54;100670.78;5063340;28;1866;-49
2020/12/26 04:31:49;;;;;;;;;;;;;;;18.84;66.66;100671.75;5056158;28;1632;-49
2020/12/26 04:34:15;;;;;;;;;;;;;;;18.84;66.57;100672.63;5074105;28;1902;-49
2020/12/26 04:36:40;;;;;;;;;;;;;;;18.84;66.48;100666.41;5070052;28;1887;-49
2020/12/26 04:39:05;;;;;;;;;;;;;;;18.86;66.85;100670.66;5058861;28;1684;-49
2020/12/26 04:41:34;;;;;;;;;;;;;;;18.83;67.36;100662.03;5055837;28;1493;-49
2020/12/26 04:44:00;;;;;;;;;;;;;;;18.82;68.06;100663.88;5056352;28;1901;-49
2020/12/26 04:46:27;;;;;;;;;;;;;;;18.83;68.27;100641.44;5055694;28;1402;-49
2020/12/26 04:49:21;;;;;;;;;;;;;;;18.91;69.61;100638.09;5055640;28;1518;-49
2020/12/26 04:51:50;;;;;;;;;;;;;;;18.91;67.87;100648.81;5052928;28;1704;-49
2020/12/26 04:54:32;;;;;;;;;;;;;;;18.92;68.31;100663.03;5022976;28;10931;-49
2020/12/26 04:56:58;;;;;;;;;;;;;;;18.94;68.33;100680.69;5034936;28;1457;-49
2020/12/26 04:59:25;;;;;;;;;;;;;;;18.94;68.19;100678.00;5054322;28;1360;-50
2020/12/26 05:01:51;;;;;;;;;;;;;;;18.92;67.92;100680.00;5082214;22;3664;-53
2020/12/26 05:04:16;;;;;;;;;;;;;;;18.95;68.25;100703.81;5087708;28;1971;-53
2020/12/26 05:06:46;;;;;;;;;;;;;;;18.93;68.40;100691.53;5092868;28;1354;-59
2020/12/26 05:09:12;;;;;;;;;;;;;;;18.92;69.02;100674.63;5090936;28;1643;-53
2020/12/26 05:11:37;;;;;;;;;;;;;;;18.96;70.00;100662.66;5082328;28;1604;-59
2020/12/26 05:14:06;;;;;;;;;;;;;;;18.95;70.41;100668.97;5086618;28;1524;-55
2020/12/26 05:16:31;;;;;;;;;;;;;;;18.95;69.74;100671.66;5091829;28;1477;-53
2020/12/26 05:18:57;;;;;;;;;;;;;;;18.92;69.34;100671.06;5095735;28;1675;-58
2020/12/26 05:21:25;;;;;;;;;;;;;;;18.96;69.20;100669.81;5093141;28;1462;-59
2020/12/26 05:24:04;;;;;;;;;;;;;;;18.94;69.16;100674.47;5095930;28;1945;-59
2020/12/26 05:26:30;;;;;;;;;;;;;;;18.91;69.40;100682.78;5096479;28;1751;-58
2020/12/26 05:28:59;;;;;;;;;;;;;;;18.96;69.57;100683.22;5095039;28;1576;-53
2020/12/26 05:31:41;;;;;;;;;;;;;;;18.97;69.06;100709.88;5076556;28;848;-59
2020/12/26 05:34:07;;;;;;;;;;;;;;;18.95;69.57;100722.56;5082908;28;1433;-59
2020/12/26 05:36:33;;;;;;;;;;;;;;;18.92;69.88;100709.47;5096519;28;1619;-54
2020/12/26 05:38:58;;;;;;;;;;;;;;;18.90;69.65;100703.41;5095920;28;1764;-53
2020/12/26 05:41:23;;;;;;;;;;;;;;;18.90;69.69;100724.84;5095792;28;1461;-53
2020/12/26 05:43:49;;;;;;;;;;;;;;;18.89;69.37;100725.78;5095998;28;1959;-53
2020/12/26 05:46:15;;;;;;;;;;;;;;;18.91;69.47;100747.94;5096783;28;737;-58
2020/12/26 05:48:40;;;;;;;;;;;;;;;18.89;69.17;100739.19;5096292;28;1682;-59
2020/12/26 05:51:06;;;;;;;;;;;;;;;18.85;69.41;100754.69;5091086;28;1388;-54
2020/12/26 05:53:32;;;;;;;;;;;;;;;18.86;69.65;100756.41;5090789;28;1548;-53
2020/12/26 05:55:57;;;;;;;;;;;;;;;18.81;69.23;100750.59;5096078;28;1481;-59
2020/12/26 05:58:24;;;;;;;;;;;;;;;18.84;69.11;100762.84;5095021;28;1663;-59
2020/12/26 06:00:50;;;;;;;;;;;;;;;18.84;69.46;100781.59;5088101;28;1508;-59
2020/12/26 06:03:25;;;;;;;;;;;;;;;18.84;68.77;100786.97;5082160;28;1970;-59
2020/12/26 06:05:51;;;;;;;;;;;;;;;18.84;69.03;100779.81;5086368;28;1286;-59
2020/12/26 06:08:17;;;;;;;;;;;;;;;18.83;68.81;100766.53;5078981;28;1436;-54
2020/12/26 06:10:49;;;;;;;;;;;;;;;18.88;68.64;100770.50;5082131;28;1433;-53
2020/12/26 06:13:15;;;;;;;;;;;;;;;18.86;68.59;100774.28;5080855;28;1370;-53
2020/12/26 06:15:45;;;;;;;;;;;;;;;18.87;68.69;100774.16;5083876;28;1294;-53
2020/12/26 06:18:10;;;;;;;;;;;;;;;18.86;68.66;100760.88;5081589;28;1426;-53
2020/12/26 06:20:36;;;;;;;;;;;;;;;18.84;68.82;100762.84;5082056;28;1215;-54
2020/12/26 06:23:02;;;;;;;;;;;;;;;18.84;68.92;100769.09;5082459;28;1964;-59
2020/12/26 06:25:29;;;;;;;;;;;;;;;18.85;68.81;100769.91;5076020;28;1372;-53
2020/12/26 06:27:59;;;;;;;;;;;;;;;18.87;68.64;100778.66;5077021;28;1505;-53
2020/12/26 06:30:25;;;;;;;;;;;;;;;18.88;68.56;100769.66;5082456;28;1278;-58
2020/12/26 06:32:51;;;;;;;;;;;;;;;18.87;68.34;100778.66;5078324;28;1509;-58
2020/12/26 06:35:17;;;;;;;;;;;;;;;18.87;68.74;100789.38;5080674;28;1174;-52
2020/12/26 06:37:43;;;;;;;;;;;;;;;18.89;68.75;100792.78;5077676;28;1405;-53
2020/12/26 06:40:24;;;;;;;;;;;;;;;18.86;68.76;100775.16;5071721;28;1372;-59
2020/12/26 06:42:49;;;;;;;;;;;;;;;18.85;68.30;100775.28;5073494;28;1957;-53
2020/12/26 06:45:34;;;;;;;;;;;;;;;18.86;68.52;100788.56;5082177;28;1258;-59
2020/12/26 06:48:00;;;;;;;;;;;;;;;18.82;68.55;100780.91;5076406;28;1472;-59
2020/12/26 06:50:27;;;;;;;;;;;;;;;18.82;68.57;100802.31;5072512;28;1250;-59
2020/12/26 06:52:53;;;;;;;;;;;;;;;18.82;68.84;100810.38;5078503;28;1451;-53
2020/12/26 06:55:36;;;;;;;;;;;;;;;18.83;69.03;100814.75;5079088;28;1239;-58
2020/12/26 06:58:02;;;;;;;;;;;;;;;18.83;69.20;100799.53;5081973;28;10960;-53
2020/12/26 07:00:27;;;;;;;;;;;;;;;18.84;69.02;100811.94;5077075;28;1278;-59
2020/12/26 07:03:19;;;;;;;;;;;;;;;18.82;69.04;100808.56;5082223;28;1979;-53
2020/12/26 07:05:45;;;;;;;;;;;;;;;18.83;68.98;100809.41;5074477;28;1525;-58
2020/12/26 07:08:46;;;;;;;;;;;;;;;18.80;69.25;100823.91;5079523;28;1451;-53
2020/12/26 07:11:22;;;;;;;;;;;;;;;18.75;68.98;100820.75;5026735;28;1446;-53
2020/12/26 07:13:49;;;;;;;;;;;;;;;18.78;69.66;100819.63;5067212;28;1540;-58
2020/12/26 07:16:33;;;;;;;;;;;;;;;18.73;69.29;100812.00;5073391;28;1425;-58
2020/12/26 07:19:18;;;;;;;;;;;;;;;18.79;69.53;100832.91;5076812;28;1373;-59
2020/12/26 07:21:44;;;;;;;;;;;;;;;18.78;69.95;100838.38;5077457;28;1461;-53
2020/12/26 07:24:14;;;;;;;;;;;;;;;18.80;69.23;100841.78;5081302;28;1883;-58
2020/12/26 07:26:40;;;;;;;;;;;;;;;18.79;69.23;100834.72;5080572;28;1517;-59
2020/12/26 07:29:05;;;;;;;;;;;;;;;18.81;69.23;100833.63;5082386;28;1436;-58
2020/12/26 07:31:45;;;;;;;;;;;;;;;18.84;70.23;100827.16;5076175;28;1696;-55
2020/12/26 07:34:30;;;;;;;;;;;;;;;18.84;70.80;100840.56;5081299;28;1406;-59
2020/12/26 07:36:56;;;;;;;;;;;;;;;18.78;71.47;100835.69;5079038;28;1573;-53
2020/12/26 07:39:21;;;;;;;;;;;;;;;18.84;71.85;100837.88;5077384;28;1421;-53
2020/12/26 07:41:47;;;;;;;;;;;;;;;18.90;71.34;100858.81;5083913;28;1497;-53
2020/12/26 07:44:14;;;;;;;;;;;;;;;18.84;70.94;100849.47;5075262;28;1936;-59
2020/12/26 07:46:40;;;;;;;;;;;;;;;18.76;71.27;100857.28;5074583;28;1327;-53
2020/12/26 07:49:05;;;;;;;;;;;;;;;18.74;71.28;100839.63;5083063;28;1254;-58
2020/12/26 07:51:31;;;;;;;;;;;;;;;18.79;69.77;100866.88;5068553;28;1336;-53
2020/12/26 07:53:59;;;;;;;;;;;;;;;18.74;70.65;100858.38;5072743;28;1380;-58
2020/12/26 07:56:27;;;;;;;;;;;;;;;18.67;71.06;100864.25;5071662;28;1255;-53
2020/12/26 07:58:55;;;;;;;;;;;;;;;18.67;70.37;100874.13;5073620;28;1340;-53
2020/12/26 08:01:24;;;;;;;;;;;;;;;18.61;70.73;100883.53;5063314;28;1449;-58
2020/12/26 08:03:58;;;;;;;;;;;;;;;18.60;70.75;100889.88;5071337;28;1975;-58
2020/12/26 08:06:24;;;;;;;;;;;;;;;18.63;70.94;100892.28;5055282;28;1572;-59
2020/12/26 08:08:51;;;;;;;;;;;;;;;18.59;70.17;100885.50;5073460;28;1402;-53
2020/12/26 08:11:21;;;;;;;;;;;;;;;18.58;70.00;100875.78;5073649;28;737;-52
2020/12/26 08:13:57;;;;;;;;;;;;;;;18.57;70.51;100884.78;5082903;28;1503;-58
2020/12/26 08:16:23;;;;;;;;;;;;;;;18.51;70.38;100874.59;5075887;28;1644;-58
2020/12/26 08:18:49;;;;;;;;;;;;;;;18.47;69.99;100876.66;5092072;28;1586;-59
2020/12/26 08:21:18;;;;;;;;;;;;;;;18.42;70.05;100873.53;5083118;28;1588;-58
2020/12/26 08:23:54;;;;;;;;;;;;;;;18.43;69.57;100871.69;5076555;28;1882;-59
2020/12/26 08:26:19;;;;;;;;;;;;;;;18.52;69.21;100870.06;5079054;28;1557;-53
2020/12/26 08:28:45;;;;;;;;;;;;;;;18.52;68.31;100875.44;5077487;28;1041;-52
2020/12/26 08:31:12;;;;;;;;;;;;;;;18.56;69.01;100867.03;5079840;28;1432;-58
2020/12/26 08:33:39;;;;;;;;;;;;;;;18.59;68.63;100856.03;5077631;28;1582;-58
2020/12/26 08:36:05;;;;;;;;;;;;;;;18.61;68.96;100872.81;5077111;28;1195;-58
2020/12/26 08:38:37;;;;;;;;;;;;;;;18.63;69.38;100857.47;5073707;28;1330;-53
2020/12/26 08:41:04;;;;;;;;;;;;;;;18.64;69.21;100858.31;5070199;28;1267;-58
2020/12/26 08:43:29;;;;;;;;;;;;;;;18.68;68.73;100868.66;5065787;28;1952;-59
2020/12/26 08:45:55;;;;;;;;;;;;;;;18.68;69.61;100863.28;5077029;28;1411;-53
2020/12/26 08:48:22;;;;;;;;;;;;;;;18.76;69.65;100859.09;5072971;28;1329;-58
2020/12/26 08:50:54;;;;;;;;;;;;;;;18.76;69.47;100851.94;5075838;28;1331;-59
2020/12/26 08:53:20;;;;;;;;;;;;;;;18.79;69.21;100861.53;5080450;28;1335;-58
2020/12/26 08:55:50;;;;;;;;;;;;;;;18.74;69.75;100858.38;5077005;28;1342;-55
2020/12/26 08:58:41;;;;;;;;;;;;;;;18.85;69.68;100840.44;5069480;28;1191;-59
2020/12/26 09:01:07;;;;;;;;;;;;;;;18.84;69.69;100854.81;5077318;28;1648;-55
2020/12/26 09:03:33;;;;;;;;;;;;;;;18.81;69.67;100847.03;5096785;28;1910;-59
2020/12/26 09:05:59;;;;;;;;;;;;;;;18.81;69.89;100854.22;5096132;28;1315;-53
2020/12/26 09:08:28;;;;;;;;;;;;;;;18.78;69.67;100844.59;5097079;28;1421;-58
2020/12/26 09:10:58;;;;;;;;;;;;;;;18.72;69.99;100849.63;5095064;28;1254;-53
2020/12/26 09:13:35;;;;;;;;;;;;;;;18.76;70.58;100864.44;5092518;28;1329;-56
2020/12/26 09:16:03;;;;;;;;;;;;;;;18.72;70.17;100845.13;5095685;28;1492;-53
2020/12/26 09:18:33;;;;;;;;;;;;;;;18.76;71.07;100843.88;5096018;28;1405;-53
2020/12/26 09:20:59;;;;;;;;;;;;;;;18.74;70.40;100842.28;5094400;28;1790;-53
2020/12/26 09:23:30;;;;;;;;;;;;;;;18.74;71.35;100844.97;5096265;28;1886;-53
2020/12/26 09:26:07;;;;;;;;;;;;;;;18.71;71.15;100838.06;5095193;28;1608;-56
2020/12/26 09:28:40;;;;;;;;;;;;;;;18.71;71.09;100837.22;5095500;28;1376;-57
2020/12/26 09:31:09;;;;;;;;;;;;;;;18.71;70.86;100835.38;5095117;28;1467;-55
2020/12/26 09:33:35;;;;;;;;;;;;;;;18.73;71.25;100840.63;5094757;28;1432;-59
2020/12/26 09:36:09;;;;;;;;;;;;;;;18.73;72.62;100833.41;5095229;28;1676;-53
2020/12/26 09:38:34;;;;;;;;;;;;;;;18.72;73.11;100823.69;5093615;28;1337;-52
2020/12/26 09:41:14;;;;;;;;;;;;;;;18.76;72.74;100824.25;5092197;28;1663;-57
2020/12/26 09:43:40;;;;;;;;;;;;;;;18.75;73.29;100796.63;5093628;28;1943;-57
2020/12/26 09:46:05;;;;;;;;;;;;;;;18.85;72.01;100802.91;5093003;28;1459;-52
2020/12/26 09:48:31;;;;;;;;;;;;;;;18.28;72.86;100813.13;5089536;28;1639;-53
2020/12/26 09:50:56;;;;;;;;;;;;;;;18.29;71.52;100788.03;5092534;28;1524;-57
2020/12/26 09:53:22;;;;;;;;;;;;;;;18.35;69.04;100793.88;5078306;28;1298;-57
2020/12/26 09:55:47;;;;;;;;;;;;;;;18.32;69.45;100810.16;5093022;28;1369;-53
2020/12/26 09:58:13;;;;;;;;;;;;;;;18.37;67.32;100798.09;5093259;28;1659;-57
2020/12/26 10:00:38;;;;;;;;;;;;;;;18.34;67.06;100824.28;5091159;28;1469;-52
2020/12/26 10:03:03;;;;;;;;;;;;;;;18.31;65.58;100793.28;5055777;28;1975;-57
2020/12/26 10:05:28;;;;;;;;;;;;;;;18.37;65.84;100789.22;5056615;28;1518;-52
2020/12/26 10:07:54;;;;;;;;;;;;;;;18.43;65.71;100812.78;5065240;28;1422;-57
2020/12/26 10:10:19;;;;;;;;;;;;;;;18.43;65.40;100813.63;5060541;28;1522;-56
2020/12/26 10:12:44;;;;;;;;;;;;;;;18.50;64.82;100808.59;5060110;28;1367;-51
2020/12/26 10:15:10;;;;;;;;;;;;;;;18.54;64.73;100803.84;5063008;28;1199;-53
2020/12/26 10:17:35;;;;;;;;;;;;;;;18.53;64.44;100796.78;5062230;28;1300;-57
2020/12/26 10:20:00;;;;;;;;;;;;;;;18.50;64.25;100797.88;5056939;28;1286;-53
2020/12/26 10:22:26;;;;;;;;;;;;;;;18.58;65.08;100799.91;5055137;28;1556;-53
2020/12/26 10:24:51;;;;;;;;;;;;;;;18.74;65.28;100800.31;5057547;28;1889;-53
2020/12/26 10:27:16;;;;;;;;;;;;;;;18.77;65.24;100805.38;5066282;28;1383;-58
2020/12/26 10:29:42;;;;;;;;;;;;;;;18.78;65.65;100811.59;5067209;28;1316;-53
2020/12/26 10:32:07;;;;;;;;;;;;;;;18.83;65.69;100806.72;5063943;28;1406;-53
2020/12/26 10:34:32;;;;;;;;;;;;;;;18.89;64.93;100814.22;5059547;28;1371;-57
2020/12/26 10:36:58;;;;;;;;;;;;;;;18.90;65.63;100798.97;5063878;28;1216;-57
2020/12/26 10:39:23;;;;;;;;;;;;;;;18.90;66.49;100805.22;5063134;28;1457;-53
2020/12/26 10:41:48;;;;;;;;;;;;;;;18.95;67.33;100805.63;5054806;28;1438;-58
2020/12/26 10:44:13;;;;;;;;;;;;;;;18.96;67.81;100819.88;5060702;28;1925;-58
2020/12/26 10:46:41;;;;;;;;;;;;;;;18.86;67.86;100819.81;5059215;28;1101;-57
2020/12/26 10:49:06;;;;;;;;;;;;;;;18.85;68.17;100820.81;5054902;28;1179;-58
2020/12/26 10:51:31;;;;;;;;;;;;;;;18.92;66.94;100835.41;5054288;28;10951;-60
2020/12/26 10:53:56;;;;;;;;;;;;;;;18.83;68.38;100822.78;5055852;28;1391;-57
2020/12/26 10:56:22;;;;;;;;;;;;;;;18.86;68.68;100834.09;4994563;28;10791;-58
2020/12/26 10:58:47;;;;;;;;;;;;;;;18.91;68.70;100841.72;5052985;28;1176;-55
2020/12/26 11:01:12;;;;;;;;;;;;;;;18.78;66.13;100849.09;5047800;28;1441;-55
2020/12/26 11:03:38;;;;;;;;;;;;;;;18.59;67.55;100849.84;5064176;28;1987;-56
2020/12/26 11:06:03;;;;;;;;;;;;;;;18.40;68.62;100850.53;5058929;28;1197;-55
2020/12/26 11:08:28;;;;;;;;;;;;;;;18.34;64.63;100846.53;5060989;28;1137;-55
2020/12/26 11:10:54;;;;;;;;;;;;;;;18.49;62.61;100831.00;5054162;28;1434;-57
2020/12/26 11:13:19;;;;;;;;;;;;;;;18.26;67.48;100823.13;5060319;28;1188;-57
2020/12/26 11:15:45;;;;;;;;;;;;;;;18.29;65.84;100838.91;5056488;28;1374;-57
2020/12/26 11:18:10;;;;;;;;;;;;;;;18.39;62.75;100827.44;5070509;28;1309;-56
2020/12/26 11:20:35;;;;;;;;;;;;;;;18.49;64.58;100829.19;5052340;28;1405;-54
2020/12/26 11:23:01;;;;;;;;;;;;;;;18.60;64.67;100847.03;5057696;28;1973;-57
2020/12/26 11:25:26;;;;;;;;;;;;;;;18.63;65.28;100851.25;5059754;28;1264;-54
2020/12/26 11:27:51;;;;;;;;;;;;;;;18.77;68.58;100848.25;5057984;28;1447;-55
2020/12/26 11:30:17;;;;;;;;;;;;;;;18.83;67.60;100862.97;5068328;28;1300;-57
2020/12/26 11:32:42;;;;;;;;;;;;;;;18.76;69.01;100867.13;5050377;28;1413;-57
2020/12/26 11:35:07;;;;;;;;;;;;;;;18.69;69.57;100886.41;5062933;28;1344;-55
2020/12/26 11:37:33;;;;;;;;;;;;;;;18.69;72.21;100870.34;5060303;28;1410;-54
2020/12/26 11:39:58;;;;;;;;;;;;;;;18.79;72.52;100851.69;5063608;28;1349;-54
2020/12/26 11:42:23;;;;;;;;;;;;;;;18.82;71.17;100845.19;5060162;28;1375;-54
2020/12/26 11:44:49;;;;;;;;;;;;;;;18.87;70.12;100832.25;5059767;28;1898;-54
2020/12/26 11:47:14;;;;;;;;;;;;;;;18.98;69.02;100821.47;5059249;28;1485;-54
2020/12/26 11:49:39;;;;;;;;;;;;;;;18.99;69.84;100827.66;5063691;28;1354;-57
2020/12/26 11:52:04;;;;;;;;;;;;;;;18.91;69.99;100827.50;5061374;28;1379;-57
2020/12/26 11:54:30;;;;;;;;;;;;;;;18.88;69.89;100833.97;5059427;28;1343;-54
2020/12/26 11:56:55;;;;;;;;;;;;;;;18.85;70.16;100837.75;5068138;28;1355;-57
2020/12/26 11:59:21;;;;;;;;;;;;;;;18.85;70.29;100848.47;5071330;28;1390;-54
2020/12/26 12:01:46;;;;;;;;;;;;;;;18.80;70.13;100831.09;5073924;28;1342;-54
2020/12/26 12:04:11;;;;;;;;;;;;;;;18.77;70.49;100834.00;5080905;28;1910;-54
2020/12/26 12:06:37;;;;;;;;;;;;;;;18.78;70.52;100838.38;5072565;28;1383;-56
2020/12/26 12:09:03;;;;;;;;;;;;;;;18.80;70.01;100831.09;5069826;28;1450;-54
2020/12/26 12:11:28;;;;;;;;;;;;;;;18.80;70.34;100842.66;5068096;28;1507;-57
2020/12/26 12:13:54;;;;;;;;;;;;;;;18.81;70.53;100843.50;5070844;28;1327;-57
2020/12/26 12:16:19;;;;;;;;;;;;;;;18.76;70.49;100822.44;5068834;28;1195;-57
2020/12/26 12:18:45;;;;;;;;;;;;;;;18.77;70.38;100831.34;5070580;28;911;-57
2020/12/26 12:21:10;;;;;;;;;;;;;;;18.74;70.38;100818.19;5071062;28;1382;-57
2020/12/26 12:23:35;;;;;;;;;;;;;;;18.76;69.80;100814.41;5068639;28;1889;-54
2020/12/26 12:26:00;;;;;;;;;;;;;;;18.77;70.18;100809.91;5065960;28;1371;-54
2020/12/26 12:28:26;;;;;;;;;;;;;;;18.76;69.97;100819.78;5068525;28;1208;-57
2020/12/26 12:30:51;;;;;;;;;;;;;;;18.77;69.78;100801.88;5070696;28;1306;-57
2020/12/26 12:33:16;;;;;;;;;;;;;;;18.78;69.89;100790.16;5067999;28;1144;-57
2020/12/26 12:35:42;;;;;;;;;;;;;;;18.81;70.10;100809.53;5067237;28;1143;-57
2020/12/26 12:38:07;;;;;;;;;;;;;;;18.78;70.28;100806.22;5069668;28;1269;-54
2020/12/26 12:40:32;;;;;;;;;;;;;;;18.76;70.27;100805.50;5069455;28;1231;-54
2020/12/26 12:42:57;;;;;;;;;;;;;;;18.79;70.16;100813.28;5066717;28;1893;-54
2020/12/26 12:45:23;;;;;;;;;;;;;;;18.78;70.19;100817.81;5069524;28;1438;-54
2020/12/26 12:47:48;;;;;;;;;;;;;;;18.78;69.95;100819.63;5074115;28;1445;-55